sensor_id;sensor_type;location;lat;lon;timestamp;temperature;humidity
27368;DHT22;14839;48.106;11.618;2022-08-19T04:02:10;18.40;94.60
27368;DHT22;14839;48.106;11.618;2022-08-19T04:04:38;18.40;94.60
27368;DHT22;14839;48.106;11.618;2022-08-19T04:07:03;18.30;94.60
27368;DHT22;14839;48.106;11.618;2022-08-19T04:09:45;18.30;94.60
27368;DHT22;14839;48.106;11.618;2022-08-19T04:12:11;18.30;94.60
27368;DHT22;14839;48.106;11.618;2022-08-19T04:14:37;18.30;94.60
27368;DHT22;14839;48.106;11.618;2022-08-19T04:17:03;18.30;94.60
27368;DHT22;14839;48.106;11.618;2022-08-19T04:19:30;18.30;94.60
27368;DHT22;14839;48.106;11.618;2022-08-19T04:21:57;18.30;94.60
27368;DHT22;14839;48.106;11.618;2022-08-19T04:24:23;18.30;94.60
27368;DHT22;14839;48.106;11.618;2022-08-19T04:26:50;18.30;94.60
27368;DHT22;14839;48.106;11.618;2022-08-19T04:29:19;18.40;94.60
27368;DHT22;14839;48.106;11.618;2022-08-19T04:31:47;18.50;94.60
27368;DHT22;14839;48.106;11.618;2022-08-19T04:34:16;18.40;94.60
27368;DHT22;14839;48.106;11.618;2022-08-19T04:36:43;18.40;94.60
27368;DHT22;14839;48.106;11.618;2022-08-19T04:39:16;18.50;94.60
27368;DHT22;14839;48.106;11.618;2022-08-19T04:41:43;18.50;94.60
27368;DHT22;14839;48.106;11.618;2022-08-19T04:44:27;18.50;94.60
27368;DHT22;14839;48.106;11.618;2022-08-19T04:46:56;18.40;94.60
27368;DHT22;14839;48.106;11.618;2022-08-19T04:49:23;18.40;94.60
27368;DHT22;14839;48.106;11.618;2022-08-19T04:51:50;18.40;94.60
27368;DHT22;14839;48.106;11.618;2022-08-19T04:54:21;18.40;94.60
27368;DHT22;14839;48.106;11.618;2022-08-19T04:56:51;18.40;94.60
27368;DHT22;14839;48.106;11.618;2022-08-19T04:59:17;18.40;94.60
27368;DHT22;14839;48.106;11.618;2022-08-19T05:01:44;18.30;94.60
27368;DHT22;14839;48.106;11.618;2022-08-19T05:04:13;18.40;94.60
27368;DHT22;14839;48.106;11.618;2022-08-19T05:06:39;18.40;94.60
27368;DHT22;14839;48.106;11.618;2022-08-19T05:09:05;18.40;94.60
27368;DHT22;14839;48.106;11.618;2022-08-19T05:11:34;18.40;94.60
27368;DHT22;14839;48.106;11.618;2022-08-19T05:13:59;18.40;94.60
27368;DHT22;14839;48.106;11.618;2022-08-19T05:16:26;18.50;94.60
27368;DHT22;14839;48.106;11.618;2022-08-19T05:18:52;18.50;94.60
27368;DHT22;14839;48.106;11.618;2022-08-19T05:21:38;18.50;94.60
27368;DHT22;14839;48.106;11.618;2022-08-19T05:24:23;18.60;94.60
27368;DHT22;14839;48.106;11.618;2022-08-19T05:26:51;18.50;94.60
27368;DHT22;14839;48.106;11.618;2022-08-19T05:29:19;18.50;94.60
27368;DHT22;14839;48.106;11.618;2022-08-19T05:31:46;18.60;94.60
27368;DHT22;14839;48.106;11.618;2022-08-19T05:34:15;18.60;94.60
27368;DHT22;14839;48.106;11.618;2022-08-19T05:36:43;18.60;94.60
27368;DHT22;14839;48.106;11.618;2022-08-19T05:39:12;18.70;94.60
27368;DHT22;14839;48.106;11.618;2022-08-19T05:41:46;18.80;94.60
27368;DHT22;14839;48.106;11.618;2022-08-19T05:44:13;18.80;94.60
27368;DHT22;14839;48.106;11.618;2022-08-19T05:46:40;18.80;94.60
27368;DHT22;14839;48.106;11.618;2022-08-19T05:49:08;18.80;94.60
27368;DHT22;14839;48.106;11.618;2022-08-19T05:51:35;18.70;94.60
27368;DHT22;14839;48.106;11.618;2022-08-19T05:54:04;18.70;94.60
27368;DHT22;14839;48.106;11.618;2022-08-19T05:56:31;18.70;94.60
27368;DHT22;14839;48.106;11.618;2022-08-19T05:58:57;18.80;94.60
27368;DHT22;14839;48.106;11.618;2022-08-19T06:01:25;18.80;94.60
27368;DHT22;14839;48.106;11.618;2022-08-19T06:03:51;18.80;94.60
27368;DHT22;14839;48.106;11.618;2022-08-19T06:06:17;18.80;94.60
27368;DHT22;14839;48.106;11.618;2022-08-19T06:08:43;18.90;94.60
27368;DHT22;14839;48.106;11.618;2022-08-19T06:13:50;18.80;94.60
27368;DHT22;14839;48.106;11.618;2022-08-19T06:16:18;18.80;94.60
27368;DHT22;14839;48.106;11.618;2022-08-19T06:18:52;18.70;94.60
27368;DHT22;14839;48.106;11.618;2022-08-19T06:21:22;18.60;94.60
27368;DHT22;14839;48.106;11.618;2022-08-19T06:23:48;18.60;94.60
27368;DHT22;14839;48.106;11.618;2022-08-19T06:26:16;18.50;94.60
27368;DHT22;14839;48.106;11.618;2022-08-19T06:28:42;18.50;94.60
27368;DHT22;14839;48.106;11.618;2022-08-19T06:31:15;18.50;94.60
27368;DHT22;14839;48.106;11.618;2022-08-19T06:33:42;18.40;94.60
27368;DHT22;14839;48.106;11.618;2022-08-19T06:36:26;18.50;94.60
27368;DHT22;14839;48.106;11.618;2022-08-19T06:38:58;18.50;94.60
27368;DHT22;14839;48.106;11.618;2022-08-19T06:41:25;18.60;94.60
27368;DHT22;14839;48.106;11.618;2022-08-19T06:43:51;18.70;94.60
27368;DHT22;14839;48.106;11.618;2022-08-19T06:46:17;18.70;94.60
27368;DHT22;14839;48.106;11.618;2022-08-19T06:48:45;18.80;94.60
27368;DHT22;14839;48.106;11.618;2022-08-19T06:51:11;18.80;94.60
27368;DHT22;14839;48.106;11.618;2022-08-19T06:53:37;18.80;94.60
27368;DHT22;14839;48.106;11.618;2022-08-19T06:56:04;18.70;94.60
27368;DHT22;14839;48.106;11.618;2022-08-19T06:58:31;18.70;94.60
27368;DHT22;14839;48.106;11.618;2022-08-19T07:01:02;18.70;94.60
27368;DHT22;14839;48.106;11.618;2022-08-19T07:03:30;18.70;94.60
27368;DHT22;14839;48.106;11.618;2022-08-19T07:05:56;18.90;94.60
27368;DHT22;14839;48.106;11.618;2022-08-19T07:08:22;18.90;94.60
27368;DHT22;14839;48.106;11.618;2022-08-19T07:10:47;19.00;94.60
27368;DHT22;14839;48.106;11.618;2022-08-19T07:13:14;19.10;94.60
27368;DHT22;14839;48.106;11.618;2022-08-19T07:15:40;19.20;94.60
27368;DHT22;14839;48.106;11.618;2022-08-19T07:18:06;19.20;94.60
27368;DHT22;14839;48.106;11.618;2022-08-19T07:20:31;19.30;94.60
27368;DHT22;14839;48.106;11.618;2022-08-19T07:22:58;19.60;94.60
27368;DHT22;14839;48.106;11.618;2022-08-19T07:25:23;19.60;94.60
27368;DHT22;14839;48.106;11.618;2022-08-19T07:27:49;19.80;94.60
27368;DHT22;14839;48.106;11.618;2022-08-19T07:30:15;19.90;94.60
27368;DHT22;14839;48.106;11.618;2022-08-19T07:32:41;20.00;94.60
27368;DHT22;14839;48.106;11.618;2022-08-19T07:35:08;20.10;94.60
27368;DHT22;14839;48.106;11.618;2022-08-19T07:37:34;20.30;94.60
27368;DHT22;14839;48.106;11.618;2022-08-19T07:40:04;20.40;94.60
27368;DHT22;14839;48.106;11.618;2022-08-19T07:42:29;20.40;94.60
27368;DHT22;14839;48.106;11.618;2022-08-19T07:44:55;20.40;94.60
27368;DHT22;14839;48.106;11.618;2022-08-19T07:47:21;20.40;94.60
27368;DHT22;14839;48.106;11.618;2022-08-19T07:49:46;20.10;94.60
27368;DHT22;14839;48.106;11.618;2022-08-19T07:52:12;20.20;94.60
27368;DHT22;14839;48.106;11.618;2022-08-19T07:54:39;20.20;94.60
27368;DHT22;14839;48.106;11.618;2022-08-19T07:57:06;20.10;94.60
27368;DHT22;14839;48.106;11.618;2022-08-19T07:59:32;20.00;94.60
27368;DHT22;14839;48.106;11.618;2022-08-19T08:01:59;20.00;94.60
27368;DHT22;14839;48.106;11.618;2022-08-19T08:04:26;20.00;94.60
27368;DHT22;14839;48.106;11.618;2022-08-19T08:07:10;19.90;94.60
27368;DHT22;14839;48.106;11.618;2022-08-19T08:09:54;19.80;94.60
27368;DHT22;14839;48.106;11.618;2022-08-19T08:12:29;19.70;94.60
27368;DHT22;14839;48.106;11.618;2022-08-19T08:14:59;19.70;94.60
27368;DHT22;14839;48.106;11.618;2022-08-19T08:17:28;19.60;94.60
27368;DHT22;14839;48.106;11.618;2022-08-19T08:19:54;19.40;94.60
27368;DHT22;14839;48.106;11.618;2022-08-19T08:22:21;19.30;94.60
27368;DHT22;14839;48.106;11.618;2022-08-19T08:25:12;19.30;94.60
27368;DHT22;14839;48.106;11.618;2022-08-19T08:27:39;19.30;94.60
27368;DHT22;14839;48.106;11.618;2022-08-19T08:30:07;19.40;94.60
27368;DHT22;14839;48.106;11.618;2022-08-19T08:32:38;19.30;94.60
27368;DHT22;14839;48.106;11.618;2022-08-19T08:35:06;19.20;94.60
27368;DHT22;14839;48.106;11.618;2022-08-19T08:37:32;19.20;94.60
27368;DHT22;14839;48.106;11.618;2022-08-19T08:39:58;19.20;94.60
27368;DHT22;14839;48.106;11.618;2022-08-19T08:42:34;19.10;94.60
27368;DHT22;14839;48.106;11.618;2022-08-19T08:45:13;19.20;94.60
27368;DHT22;14839;48.106;11.618;2022-08-19T08:47:44;19.20;94.60
27368;DHT22;14839;48.106;11.618;2022-08-19T08:52:56;19.00;94.60
27368;DHT22;14839;48.106;11.618;2022-08-19T08:55:26;19.10;94.60
27368;DHT22;14839;48.106;11.618;2022-08-19T08:58:06;19.10;94.60
27368;DHT22;14839;48.106;11.618;2022-08-19T09:00:41;19.00;94.60
27368;DHT22;14839;48.106;11.618;2022-08-19T09:03:19;19.00;94.60
27368;DHT22;14839;48.106;11.618;2022-08-19T09:05:59;19.00;94.60
27368;DHT22;14839;48.106;11.618;2022-08-19T09:11:06;19.00;94.60
27368;DHT22;14839;48.106;11.618;2022-08-19T09:16:34;19.00;94.60
27368;DHT22;14839;48.106;11.618;2022-08-19T09:19:05;19.00;94.60
27368;DHT22;14839;48.106;11.618;2022-08-19T09:21:32;19.00;94.60
27368;DHT22;14839;48.106;11.618;2022-08-19T09:23:57;19.00;94.60
27368;DHT22;14839;48.106;11.618;2022-08-19T09:26:24;19.00;94.60
27368;DHT22;14839;48.106;11.618;2022-08-19T09:28:51;19.10;94.60
27368;DHT22;14839;48.106;11.618;2022-08-19T09:31:23;19.20;94.60
27368;DHT22;14839;48.106;11.618;2022-08-19T09:33:50;19.40;94.60
27368;DHT22;14839;48.106;11.618;2022-08-19T09:36:18;19.50;94.60
27368;DHT22;14839;48.106;11.618;2022-08-19T09:38:44;19.60;94.60
27368;DHT22;14839;48.106;11.618;2022-08-19T09:41:16;19.60;94.60
27368;DHT22;14839;48.106;11.618;2022-08-19T09:43:44;19.60;94.60
27368;DHT22;14839;48.106;11.618;2022-08-19T09:46:11;19.80;94.60
27368;DHT22;14839;48.106;11.618;2022-08-19T09:48:40;20.00;94.60
27368;DHT22;14839;48.106;11.618;2022-08-19T09:51:09;20.00;94.60
27368;DHT22;14839;48.106;11.618;2022-08-19T09:53:37;20.10;94.60
27368;DHT22;14839;48.106;11.618;2022-08-19T09:56:03;20.20;94.60
27368;DHT22;14839;48.106;11.618;2022-08-19T09:58:29;20.40;94.60
27368;DHT22;14839;48.106;11.618;2022-08-19T10:00:56;20.50;94.60
27368;DHT22;14839;48.106;11.618;2022-08-19T10:03:22;20.80;94.60
27368;DHT22;14839;48.106;11.618;2022-08-19T10:05:48;21.00;94.60
27368;DHT22;14839;48.106;11.618;2022-08-19T10:08:16;21.40;94.60
27368;DHT22;14839;48.106;11.618;2022-08-19T10:10:42;21.50;94.60
27368;DHT22;14839;48.106;11.618;2022-08-19T10:13:11;21.40;94.60
27368;DHT22;14839;48.106;11.618;2022-08-19T10:15:37;21.20;94.60
27368;DHT22;14839;48.106;11.618;2022-08-19T10:18:06;21.40;94.60
27368;DHT22;14839;48.106;11.618;2022-08-19T10:20:31;21.50;94.60
27368;DHT22;14839;48.106;11.618;2022-08-19T10:22:57;21.50;94.60
27368;DHT22;14839;48.106;11.618;2022-08-19T10:25:25;21.50;94.60
27368;DHT22;14839;48.106;11.618;2022-08-19T10:27:52;21.70;94.60
27368;DHT22;14839;48.106;11.618;2022-08-19T10:30:17;21.80;94.60
27368;DHT22;14839;48.106;11.618;2022-08-19T10:32:44;21.90;94.60
27368;DHT22;14839;48.106;11.618;2022-08-19T10:35:12;22.10;94.60
27368;DHT22;14839;48.106;11.618;2022-08-19T10:37:38;22.00;94.60
27368;DHT22;14839;48.106;11.618;2022-08-19T10:40:08;22.20;94.60
27368;DHT22;14839;48.106;11.618;2022-08-19T10:42:36;22.40;94.60
27368;DHT22;14839;48.106;11.618;2022-08-19T10:45:02;22.70;94.60
27368;DHT22;14839;48.106;11.618;2022-08-19T10:47:28;23.00;94.60
27368;DHT22;14839;48.106;11.618;2022-08-19T10:49:54;23.00;94.60
27368;DHT22;14839;48.106;11.618;2022-08-19T10:52:45;22.90;94.60
27368;DHT22;14839;48.106;11.618;2022-08-19T10:55:11;22.80;94.60
27368;DHT22;14839;48.106;11.618;2022-08-19T10:57:55;22.90;94.60
27368;DHT22;14839;48.106;11.618;2022-08-19T11:00:22;22.80;94.60
27368;DHT22;14839;48.106;11.618;2022-08-19T11:02:48;22.70;94.60
27368;DHT22;14839;48.106;11.618;2022-08-19T11:05:14;22.70;94.60
27368;DHT22;14839;48.106;11.618;2022-08-19T11:07:41;22.90;94.60
27368;DHT22;14839;48.106;11.618;2022-08-19T11:10:09;23.10;94.60
27368;DHT22;14839;48.106;11.618;2022-08-19T11:12:37;23.20;94.60
27368;DHT22;14839;48.106;11.618;2022-08-19T11:15:05;23.30;94.60
27368;DHT22;14839;48.106;11.618;2022-08-19T11:17:33;23.10;94.60
27368;DHT22;14839;48.106;11.618;2022-08-19T11:19:58;23.00;94.60
27368;DHT22;14839;48.106;11.618;2022-08-19T11:22:28;22.80;94.60
27368;DHT22;14839;48.106;11.618;2022-08-19T11:24:53;22.70;94.60
27368;DHT22;14839;48.106;11.618;2022-08-19T11:27:20;22.60;94.60
27368;DHT22;14839;48.106;11.618;2022-08-19T11:29:46;22.60;94.60
27368;DHT22;14839;48.106;11.618;2022-08-19T11:32:11;22.80;94.60
27368;DHT22;14839;48.106;11.618;2022-08-19T11:34:39;23.00;94.60
27368;DHT22;14839;48.106;11.618;2022-08-19T11:37:06;22.90;94.60
27368;DHT22;14839;48.106;11.618;2022-08-19T11:39:33;23.00;94.60
27368;DHT22;14839;48.106;11.618;2022-08-19T11:41:59;22.90;94.60
27368;DHT22;14839;48.106;11.618;2022-08-19T11:44:26;22.80;94.60
27368;DHT22;14839;48.106;11.618;2022-08-19T11:46:56;22.60;94.60
27368;DHT22;14839;48.106;11.618;2022-08-19T11:49:21;22.40;94.60
27368;DHT22;14839;48.106;11.618;2022-08-19T11:51:48;22.30;94.60
27368;DHT22;14839;48.106;11.618;2022-08-19T11:54:16;22.30;94.60
27368;DHT22;14839;48.106;11.618;2022-08-19T11:56:43;22.20;94.60
27368;DHT22;14839;48.106;11.618;2022-08-19T11:59:09;22.10;94.60
27368;DHT22;14839;48.106;11.618;2022-08-19T12:01:36;22.00;94.60
27368;DHT22;14839;48.106;11.618;2022-08-19T12:04:02;21.90;94.60
27368;DHT22;14839;48.106;11.618;2022-08-19T12:06:31;21.70;94.60
27368;DHT22;14839;48.106;11.618;2022-08-19T12:09:02;21.60;94.60
27368;DHT22;14839;48.106;11.618;2022-08-19T12:11:28;21.60;94.60
27368;DHT22;14839;48.106;11.618;2022-08-19T12:13:54;21.60;94.60
27368;DHT22;14839;48.106;11.618;2022-08-19T12:16:23;21.60;94.60
27368;DHT22;14839;48.106;11.618;2022-08-19T12:18:49;21.70;94.60
27368;DHT22;14839;48.106;11.618;2022-08-19T12:21:18;21.70;94.60
27368;DHT22;14839;48.106;11.618;2022-08-19T12:23:46;21.70;94.60
27368;DHT22;14839;48.106;11.618;2022-08-19T12:26:12;21.60;94.60
27368;DHT22;14839;48.106;11.618;2022-08-19T12:28:38;21.50;94.60
27368;DHT22;14839;48.106;11.618;2022-08-19T12:31:04;21.50;94.60
27368;DHT22;14839;48.106;11.618;2022-08-19T12:33:30;21.60;94.60
27368;DHT22;14839;48.106;11.618;2022-08-19T12:36:01;21.70;94.60
27368;DHT22;14839;48.106;11.618;2022-08-19T12:38:27;21.70;94.60
27368;DHT22;14839;48.106;11.618;2022-08-19T12:40:54;21.70;94.60
27368;DHT22;14839;48.106;11.618;2022-08-19T12:43:19;21.80;94.60
27368;DHT22;14839;48.106;11.618;2022-08-19T12:45:45;21.80;94.60
27368;DHT22;14839;48.106;11.618;2022-08-19T12:48:12;21.90;94.60
27368;DHT22;14839;48.106;11.618;2022-08-19T12:50:43;22.00;94.60
27368;DHT22;14839;48.106;11.618;2022-08-19T12:53:11;22.00;94.60
27368;DHT22;14839;48.106;11.618;2022-08-19T12:55:36;22.20;94.60
27368;DHT22;14839;48.106;11.618;2022-08-19T12:58:02;22.30;94.60
27368;DHT22;14839;48.106;11.618;2022-08-19T13:00:28;22.20;94.60
27368;DHT22;14839;48.106;11.618;2022-08-19T13:02:54;22.30;94.60
27368;DHT22;14839;48.106;11.618;2022-08-19T13:05:23;22.30;94.60
27368;DHT22;14839;48.106;11.618;2022-08-19T13:07:50;22.30;94.60
27368;DHT22;14839;48.106;11.618;2022-08-19T13:10:19;22.50;94.60
27368;DHT22;14839;48.106;11.618;2022-08-19T13:12:47;22.70;94.60
27368;DHT22;14839;48.106;11.618;2022-08-19T13:15:14;23.00;94.20
27368;DHT22;14839;48.106;11.618;2022-08-19T13:17:40;23.20;94.20
27368;DHT22;14839;48.106;11.618;2022-08-19T13:20:08;23.40;93.10
27368;DHT22;14839;48.106;11.618;2022-08-19T13:22:34;23.60;91.80
27368;DHT22;14839;48.106;11.618;2022-08-19T13:25:05;23.60;91.10
27368;DHT22;14839;48.106;11.618;2022-08-19T13:27:31;23.60;92.00
27368;DHT22;14839;48.106;11.618;2022-08-19T13:29:57;23.70;90.40
27368;DHT22;14839;48.106;11.618;2022-08-19T13:32:41;23.80;90.70
27368;DHT22;14839;48.106;11.618;2022-08-19T13:35:25;23.90;90.60
27368;DHT22;14839;48.106;11.618;2022-08-19T13:37:50;24.10;89.50
27368;DHT22;14839;48.106;11.618;2022-08-19T13:40:22;24.20;88.10
27368;DHT22;14839;48.106;11.618;2022-08-19T13:42:50;24.20;87.40
27368;DHT22;14839;48.106;11.618;2022-08-19T13:45:19;24.10;88.90
27368;DHT22;14839;48.106;11.618;2022-08-19T13:47:50;24.20;89.50
27368;DHT22;14839;48.106;11.618;2022-08-19T13:50:19;24.30;90.10
27368;DHT22;14839;48.106;11.618;2022-08-19T13:52:46;24.40;88.60
27368;DHT22;14839;48.106;11.618;2022-08-19T13:55:13;24.20;88.00
27368;DHT22;14839;48.106;11.618;2022-08-19T13:57:39;23.80;89.80
27368;DHT22;14839;48.106;11.618;2022-08-19T14:02:36;24.00;92.10
27368;DHT22;14839;48.106;11.618;2022-08-19T14:05:03;24.00;90.10
27368;DHT22;14839;48.106;11.618;2022-08-19T14:07:30;23.80;91.60
27368;DHT22;14839;48.106;11.618;2022-08-19T14:09:55;23.80;91.50
27368;DHT22;14839;48.106;11.618;2022-08-19T14:12:22;23.80;90.80
27368;DHT22;14839;48.106;11.618;2022-08-19T14:14:48;23.70;91.10
27368;DHT22;14839;48.106;11.618;2022-08-19T14:17:13;23.50;91.40
27368;DHT22;14839;48.106;11.618;2022-08-19T14:19:40;23.30;91.80
27368;DHT22;14839;48.106;11.618;2022-08-19T14:22:06;23.00;93.20
27368;DHT22;14839;48.106;11.618;2022-08-19T14:24:31;23.10;93.30
27368;DHT22;14839;48.106;11.618;2022-08-19T14:27:00;23.20;93.20
27368;DHT22;14839;48.106;11.618;2022-08-19T14:29:25;23.40;93.00
27368;DHT22;14839;48.106;11.618;2022-08-19T14:31:52;23.60;91.60
27368;DHT22;14839;48.106;11.618;2022-08-19T14:34:18;23.50;91.10
27368;DHT22;14839;48.106;11.618;2022-08-19T14:36:44;23.60;91.90
27368;DHT22;14839;48.106;11.618;2022-08-19T14:39:10;23.60;92.10
27368;DHT22;14839;48.106;11.618;2022-08-19T14:41:40;23.60;91.00
27368;DHT22;14839;48.106;11.618;2022-08-19T14:44:07;23.50;91.20
27368;DHT22;14839;48.106;11.618;2022-08-19T14:46:32;23.50;91.90
27368;DHT22;14839;48.106;11.618;2022-08-19T14:48:58;23.30;92.10
27368;DHT22;14839;48.106;11.618;2022-08-19T14:51:24;23.10;91.90
27368;DHT22;14839;48.106;11.618;2022-08-19T14:53:53;22.80;93.40
27368;DHT22;14839;48.106;11.618;2022-08-19T14:56:23;22.70;92.70
27368;DHT22;14839;48.106;11.618;2022-08-19T14:58:48;22.60;93.60
27368;DHT22;14839;48.106;11.618;2022-08-19T15:01:18;22.60;93.60
27368;DHT22;14839;48.106;11.618;2022-08-19T15:03:48;22.60;94.60
27368;DHT22;14839;48.106;11.618;2022-08-19T15:06:14;22.60;93.80
27368;DHT22;14839;48.106;11.618;2022-08-19T15:08:41;22.40;94.40
27368;DHT22;14839;48.106;11.618;2022-08-19T15:11:12;22.40;94.10
27368;DHT22;14839;48.106;11.618;2022-08-19T15:13:40;22.30;94.60
27368;DHT22;14839;48.106;11.618;2022-08-19T15:16:07;22.20;94.60
27368;DHT22;14839;48.106;11.618;2022-08-19T15:18:32;22.10;94.60
27368;DHT22;14839;48.106;11.618;2022-08-19T15:21:00;22.00;94.60
27368;DHT22;14839;48.106;11.618;2022-08-19T15:23:26;21.90;94.60
27368;DHT22;14839;48.106;11.618;2022-08-19T15:25:51;21.90;94.60
27368;DHT22;14839;48.106;11.618;2022-08-19T15:28:21;21.90;94.60
27368;DHT22;14839;48.106;11.618;2022-08-19T15:30:46;22.00;94.60
27368;DHT22;14839;48.106;11.618;2022-08-19T15:33:12;22.10;94.40
27368;DHT22;14839;48.106;11.618;2022-08-19T15:35:42;22.10;94.60
27368;DHT22;14839;48.106;11.618;2022-08-19T15:38:08;22.10;94.60
27368;DHT22;14839;48.106;11.618;2022-08-19T15:40:34;22.10;94.40
27368;DHT22;14839;48.106;11.618;2022-08-19T15:43:00;22.10;94.60
27368;DHT22;14839;48.106;11.618;2022-08-19T15:45:26;22.00;94.60
27368;DHT22;14839;48.106;11.618;2022-08-19T15:48:02;21.80;94.60
27368;DHT22;14839;48.106;11.618;2022-08-19T15:50:30;21.60;94.60
27368;DHT22;14839;48.106;11.618;2022-08-19T15:53:03;21.40;94.60
27368;DHT22;14839;48.106;11.618;2022-08-19T15:55:32;21.30;94.60
27368;DHT22;14839;48.106;11.618;2022-08-19T15:58:09;21.20;94.60
27368;DHT22;14839;48.106;11.618;2022-08-19T16:00:53;21.20;94.60
27368;DHT22;14839;48.106;11.618;2022-08-19T16:03:37;21.20;94.60
27368;DHT22;14839;48.106;11.618;2022-08-19T16:06:21;21.30;94.60
27368;DHT22;14839;48.106;11.618;2022-08-19T16:08:59;21.40;94.60
27368;DHT22;14839;48.106;11.618;2022-08-19T16:11:29;21.50;94.60
27368;DHT22;14839;48.106;11.618;2022-08-19T16:13:56;21.50;94.60
27368;DHT22;14839;48.106;11.618;2022-08-19T16:16:30;21.50;94.60
27368;DHT22;14839;48.106;11.618;2022-08-19T16:18:59;21.60;94.60
27368;DHT22;14839;48.106;11.618;2022-08-19T16:21:26;21.60;94.60
27368;DHT22;14839;48.106;11.618;2022-08-19T16:23:56;21.80;94.60
27368;DHT22;14839;48.106;11.618;2022-08-19T16:26:22;22.00;94.60
27368;DHT22;14839;48.106;11.618;2022-08-19T16:28:49;22.20;94.50
27368;DHT22;14839;48.106;11.618;2022-08-19T16:31:15;22.20;94.60
27368;DHT22;14839;48.106;11.618;2022-08-19T16:33:41;22.10;94.00
27368;DHT22;14839;48.106;11.618;2022-08-19T16:36:07;22.10;93.90
27368;DHT22;14839;48.106;11.618;2022-08-19T16:38:33;21.80;94.40
27368;DHT22;14839;48.106;11.618;2022-08-19T16:40:59;21.60;94.60
27368;DHT22;14839;48.106;11.618;2022-08-19T16:43:27;21.40;94.60
27368;DHT22;14839;48.106;11.618;2022-08-19T16:45:53;21.30;94.60
27368;DHT22;14839;48.106;11.618;2022-08-19T16:48:24;21.20;94.60
27368;DHT22;14839;48.106;11.618;2022-08-19T16:50:51;21.00;94.60
27368;DHT22;14839;48.106;11.618;2022-08-19T16:53:20;20.90;94.60
27368;DHT22;14839;48.106;11.618;2022-08-19T16:55:47;20.80;94.60
27368;DHT22;14839;48.106;11.618;2022-08-19T16:58:16;20.70;94.60
27368;DHT22;14839;48.106;11.618;2022-08-19T17:00:43;20.70;94.60
27368;DHT22;14839;48.106;11.618;2022-08-19T17:03:10;20.70;94.60
27368;DHT22;14839;48.106;11.618;2022-08-19T17:05:47;20.60;94.60
27368;DHT22;14839;48.106;11.618;2022-08-19T17:08:14;20.50;94.60
27368;DHT22;14839;48.106;11.618;2022-08-19T17:10:41;20.40;94.60
27368;DHT22;14839;48.106;11.618;2022-08-19T17:13:07;20.30;94.60
27368;DHT22;14839;48.106;11.618;2022-08-19T17:15:33;20.30;94.60
27368;DHT22;14839;48.106;11.618;2022-08-19T17:18:00;20.20;94.60
27368;DHT22;14839;48.106;11.618;2022-08-19T17:20:28;20.20;94.60
27368;DHT22;14839;48.106;11.618;2022-08-19T17:22:53;20.10;94.60
27368;DHT22;14839;48.106;11.618;2022-08-19T17:25:21;20.10;94.60
27368;DHT22;14839;48.106;11.618;2022-08-19T17:27:47;20.10;94.60
27368;DHT22;14839;48.106;11.618;2022-08-19T17:30:13;20.10;94.60
27368;DHT22;14839;48.106;11.618;2022-08-19T17:32:38;20.10;94.60
27368;DHT22;14839;48.106;11.618;2022-08-19T17:35:04;20.00;94.60
27368;DHT22;14839;48.106;11.618;2022-08-19T17:37:31;19.90;94.60
27368;DHT22;14839;48.106;11.618;2022-08-19T17:40:04;19.90;94.60
27368;DHT22;14839;48.106;11.618;2022-08-19T17:42:31;19.90;94.60
27368;DHT22;14839;48.106;11.618;2022-08-19T17:44:57;19.80;94.60
27368;DHT22;14839;48.106;11.618;2022-08-19T17:47:24;19.70;94.60
27368;DHT22;14839;48.106;11.618;2022-08-19T17:49:49;19.60;94.60
27368;DHT22;14839;48.106;11.618;2022-08-19T17:52:16;19.60;94.60
27368;DHT22;14839;48.106;11.618;2022-08-19T17:54:43;19.60;94.60
27368;DHT22;14839;48.106;11.618;2022-08-19T17:57:08;19.60;94.60
27368;DHT22;14839;48.106;11.618;2022-08-19T17:59:34;19.60;94.60
27368;DHT22;14839;48.106;11.618;2022-08-19T18:02:02;19.60;94.60
27368;DHT22;14839;48.106;11.618;2022-08-19T18:04:29;19.50;94.60
27368;DHT22;14839;48.106;11.618;2022-08-19T18:06:55;19.40;94.60
27368;DHT22;14839;48.106;11.618;2022-08-19T18:09:22;19.30;94.60
27368;DHT22;14839;48.106;11.618;2022-08-19T18:11:48;19.20;94.60
27368;DHT22;14839;48.106;11.618;2022-08-19T18:14:14;19.10;94.60
27368;DHT22;14839;48.106;11.618;2022-08-19T18:16:39;19.00;94.60
27368;DHT22;14839;48.106;11.618;2022-08-19T18:19:05;18.90;94.60
27368;DHT22;14839;48.106;11.618;2022-08-19T18:21:31;18.80;94.60
27368;DHT22;14839;48.106;11.618;2022-08-19T18:23:59;18.80;94.60
27368;DHT22;14839;48.106;11.618;2022-08-19T18:26:25;18.70;94.60
27368;DHT22;14839;48.106;11.618;2022-08-19T18:28:51;18.60;94.60
27368;DHT22;14839;48.106;11.618;2022-08-19T18:31:18;18.60;94.60
27368;DHT22;14839;48.106;11.618;2022-08-19T18:33:44;18.60;94.60
27368;DHT22;14839;48.106;11.618;2022-08-19T18:36:10;18.50;94.60
27368;DHT22;14839;48.106;11.618;2022-08-19T18:38:36;18.50;94.60
27368;DHT22;14839;48.106;11.618;2022-08-19T18:41:20;18.60;94.60
27368;DHT22;14839;48.106;11.618;2022-08-19T18:44:04;18.50;94.60
27368;DHT22;14839;48.106;11.618;2022-08-19T18:46:48;18.50;94.60
27368;DHT22;14839;48.106;11.618;2022-08-19T18:49:33;18.50;94.60
27368;DHT22;14839;48.106;11.618;2022-08-19T18:51:59;18.50;94.60
27368;DHT22;14839;48.106;11.618;2022-08-19T18:54:26;18.50;94.60
27368;DHT22;14839;48.106;11.618;2022-08-19T18:56:52;18.40;94.60
27368;DHT22;14839;48.106;11.618;2022-08-19T18:59:26;18.40;94.60
27368;DHT22;14839;48.106;11.618;2022-08-19T19:01:53;18.40;94.60
27368;DHT22;14839;48.106;11.618;2022-08-19T19:04:29;18.40;94.60
27368;DHT22;14839;48.106;11.618;2022-08-19T19:06:55;18.40;94.60
27368;DHT22;14839;48.106;11.618;2022-08-19T19:09:23;18.30;94.60
27368;DHT22;14839;48.106;11.618;2022-08-19T19:11:51;18.40;94.60
27368;DHT22;14839;48.106;11.618;2022-08-19T19:14:23;18.30;94.60
27368;DHT22;14839;48.106;11.618;2022-08-19T19:16:50;18.30;94.60
27368;DHT22;14839;48.106;11.618;2022-08-19T19:19:16;18.20;94.60
27368;DHT22;14839;48.106;11.618;2022-08-19T19:21:44;18.20;94.60
27368;DHT22;14839;48.106;11.618;2022-08-19T19:24:19;18.10;94.60
27368;DHT22;14839;48.106;11.618;2022-08-19T19:26:47;18.10;94.60
27368;DHT22;14839;48.106;11.618;2022-08-19T19:29:13;18.10;94.60
27368;DHT22;14839;48.106;11.618;2022-08-19T19:31:40;18.10;94.60
27368;DHT22;14839;48.106;11.618;2022-08-19T19:34:07;18.10;94.60
27368;DHT22;14839;48.106;11.618;2022-08-19T19:36:32;18.00;94.60